Time;durP1;ratioP1;P1;durP2;ratioP2;P2;SDS_P1;SDS_P2;PMS_P1;PMS_P2;Temp;Humidity;BMP_temperature;BMP_pressure;BME280_temperature;BME280_humidity;BME280_pressure;Samples;Min_cycle;Max_cycle;Signal;HPM_P1;HPM_P2
2023/10/04 00:00:55;;;;;;;;;;;;;;;17.48;46.73;101617.47;4957381;29;1979;-54
2023/10/04 00:03:23;;;;;;;;;;;;;;;17.06;46.57;101614.25;4958441;28;1193;-54
2023/10/04 00:05:48;;;;;;;;;;;;;;;16.87;45.97;101610.13;4959085;29;1076;-54
2023/10/04 00:08:14;;;;;;;;;;;;;;;17.89;46.44;101602.19;4958578;29;1181;-54
2023/10/04 00:10:39;;;;;;;;;;;;;;;17.42;47.04;101598.16;4958809;29;1172;-54
2023/10/04 00:13:05;;;;;;;;;;;;;;;17.16;46.68;101597.06;4950275;29;1084;-53
2023/10/04 00:15:31;;;;;;;;;;;;;;;16.95;46.24;101590.50;4958863;29;1160;-55
2023/10/04 00:17:57;;;;;;;;;;;;;;;18.09;46.23;101593.28;4958448;29;1104;-54
2023/10/04 00:20:22;;;;;;;;;;;;;;;17.37;47.01;101589.88;4958377;29;1410;-54
2023/10/04 00:22:48;;;;;;;;;;;;;;;17.02;46.54;101585.63;4958656;29;1902;-53
2023/10/04 00:25:20;;;;;;;;;;;;;;;16.90;45.61;101576.69;4955639;29;1033;-53
2023/10/04 00:27:46;;;;;;;;;;;;;;;16.82;45.20;101583.44;4958347;28;1077;-55
2023/10/04 00:30:12;;;;;;;;;;;;;;;16.93;45.14;101582.50;4958690;29;1046;-54
2023/10/04 00:32:38;;;;;;;;;;;;;;;17.36;46.42;101577.22;4945532;29;1104;-54
2023/10/04 00:35:08;;;;;;;;;;;;;;;16.98;46.28;101581.72;4958490;29;1112;-54
2023/10/04 00:37:34;;;;;;;;;;;;;;;16.86;45.62;101581.84;4947823;29;1169;-55
2023/10/04 00:40:00;;;;;;;;;;;;;;;17.57;46.24;101569.16;4958342;29;1021;-55
2023/10/04 00:42:26;;;;;;;;;;;;;;;17.19;46.79;101569.06;4956823;29;1910;-55
2023/10/04 00:44:53;;;;;;;;;;;;;;;16.96;46.30;101583.06;4958617;29;1050;-54
2023/10/04 00:47:18;;;;;;;;;;;;;;;17.80;46.04;101576.25;4958252;29;1121;-55
2023/10/04 00:49:45;;;;;;;;;;;;;;;17.14;46.84;101582.75;4954184;29;875;-54
2023/10/04 00:52:11;;;;;;;;;;;;;;;16.92;46.05;101580.84;4943938;29;1164;-53
2023/10/04 00:54:37;;;;;;;;;;;;;;;17.55;46.23;101579.59;4956710;29;1369;-53
2023/10/04 00:57:04;;;;;;;;;;;;;;;17.20;46.89;101572.66;4956569;29;1145;-53
2023/10/04 00:59:31;;;;;;;;;;;;;;;17.08;46.04;101579.13;4958322;29;1451;-54
2023/10/04 01:01:57;;;;;;;;;;;;;;;17.48;46.57;101565.25;4945047;29;1910;-54
2023/10/04 01:04:22;;;;;;;;;;;;;;;17.46;47.12;101562.75;4958312;29;1081;-52
2023/10/04 01:06:48;;;;;;;;;;;;;;;17.14;46.69;101557.19;4957938;29;1127;-52
2023/10/04 01:09:14;;;;;;;;;;;;;;;18.07;46.60;101559.69;4956869;29;1119;-52
2023/10/04 01:11:46;;;;;;;;;;;;;;;17.53;46.88;101554.25;4958367;29;1097;-53
2023/10/04 01:14:32;;;;;;;;;;;;;;;17.08;46.64;101561.78;4941915;29;1609;-54
2023/10/04 01:16:58;;;;;;;;;;;;;;;16.95;46.19;101560.28;4955144;29;1067;-54
2023/10/04 01:19:25;;;;;;;;;;;;;;;17.57;46.78;101556.25;4954274;28;1565;-51
2023/10/04 01:21:51;;;;;;;;;;;;;;;17.17;46.69;101565.75;4960700;29;1977;-56
2023/10/04 01:24:17;;;;;;;;;;;;;;;16.95;46.21;101559.47;4961712;29;1026;-54
2023/10/04 01:26:42;;;;;;;;;;;;;;;16.85;45.39;101566.44;4960546;29;1010;-54
2023/10/04 01:29:11;;;;;;;;;;;;;;;16.79;44.88;101563.88;4961490;29;1143;-56
2023/10/04 01:31:37;;;;;;;;;;;;;;;17.51;46.45;101564.72;4961389;29;1137;-55
2023/10/04 01:34:03;;;;;;;;;;;;;;;17.03;46.32;101559.81;4961853;29;1071;-56
2023/10/04 01:36:31;;;;;;;;;;;;;;;16.96;45.61;101563.84;4955662;29;1165;-55
2023/10/04 01:38:57;;;;;;;;;;;;;;;17.74;46.15;101558.88;4959615;29;998;-55
2023/10/04 01:41:24;;;;;;;;;;;;;;;17.28;46.91;101561.19;4955241;28;1982;-55
2023/10/04 01:43:53;;;;;;;;;;;;;;;17.06;46.35;101551.06;4955454;29;1042;-54
2023/10/04 01:46:18;;;;;;;;;;;;;;;17.36;46.34;101552.50;4961457;29;1049;-55
2023/10/04 01:48:44;;;;;;;;;;;;;;;17.64;46.88;101549.69;4959323;29;1110;-54
2023/10/04 01:51:10;;;;;;;;;;;;;;;17.21;46.74;101549.59;4961152;29;1033;-54
2023/10/04 01:53:35;;;;;;;;;;;;;;;16.99;45.90;101552.38;4961435;29;1125;-53
2023/10/04 01:56:05;;;;;;;;;;;;;;;18.07;46.60;101545.94;4961409;29;1142;-54
2023/10/04 01:58:31;;;;;;;;;;;;;;;17.33;46.92;101552.97;4959766;29;1478;-54
2023/10/04 02:00:57;;;;;;;;;;;;;;;17.06;46.56;101542.00;4958868;29;1977;-54
2023/10/04 02:03:23;;;;;;;;;;;;;;;16.98;45.70;101550.69;4955321;29;1159;-53
2023/10/04 02:05:50;;;;;;;;;;;;;;;16.84;45.14;101547.47;4954100;29;1058;-54
2023/10/04 02:08:17;;;;;;;;;;;;;;;16.79;44.55;101539.16;4969729;28;1229;-56
2023/10/04 02:10:46;;;;;;;;;;;;;;;16.73;44.28;101539.13;4949311;29;1014;-55
2023/10/04 02:13:17;;;;;;;;;;;;;;;17.41;45.82;101526.94;4959265;29;1165;-54
2023/10/04 02:15:44;;;;;;;;;;;;;;;16.88;46.15;101541.25;4961434;29;1153;-54
2023/10/04 02:18:10;;;;;;;;;;;;;;;16.84;45.46;101542.00;4947601;29;1151;-54
2023/10/04 02:20:35;;;;;;;;;;;;;;;17.10;45.94;101527.47;4960868;29;1185;-54
2023/10/04 02:23:03;;;;;;;;;;;;;;;17.30;46.51;101528.75;4956773;29;1918;-53
2023/10/04 02:25:29;;;;;;;;;;;;;;;16.92;46.23;101527.84;4950073;29;1089;-53
2023/10/04 02:28:00;;;;;;;;;;;;;;;16.74;45.56;101531.72;4947703;28;1105;-54
2023/10/04 02:30:26;;;;;;;;;;;;;;;17.89;45.63;101527.06;4960629;29;1117;-54
2023/10/04 02:32:53;;;;;;;;;;;;;;;17.09;46.56;101524.97;4946252;29;1312;-54
2023/10/04 02:35:26;;;;;;;;;;;;;;;16.98;45.87;101529.53;4943808;29;1126;-52
2023/10/04 02:37:55;;;;;;;;;;;;;;;16.89;45.06;101522.84;4958077;29;1091;-53
2023/10/04 02:40:22;;;;;;;;;;;;;;;17.77;45.92;101522.56;4974959;28;1566;-53
2023/10/04 02:42:48;;;;;;;;;;;;;;;17.09;46.76;101525.81;4960477;28;1914;-53
2023/10/04 02:45:18;;;;;;;;;;;;;;;16.97;45.88;101527.91;4960542;29;1037;-54
2023/10/04 02:47:48;;;;;;;;;;;;;;;16.77;45.31;101522.94;4959008;29;1223;-53
2023/10/04 02:50:17;;;;;;;;;;;;;;;17.57;46.05;101517.75;4949355;29;1117;-51
2023/10/04 02:52:44;;;;;;;;;;;;;;;17.03;46.36;101515.88;4947748;29;1037;-53
2023/10/04 02:55:15;;;;;;;;;;;;;;;16.83;45.75;101521.09;4945919;29;1306;-51
2023/10/04 02:57:45;;;;;;;;;;;;;;;16.74;45.22;101520.72;4959132;29;1424;-51
2023/10/04 03:00:16;;;;;;;;;;;;;;;17.59;45.79;101525.75;4958433;29;1060;-51
2023/10/04 03:02:43;;;;;;;;;;;;;;;17.24;46.81;101516.06;4946548;29;1910;-54
2023/10/04 03:05:09;;;;;;;;;;;;;;;16.95;46.28;101513.56;4953616;29;1141;-51
2023/10/04 03:07:34;;;;;;;;;;;;;;;16.80;45.88;101519.69;4964169;28;1261;-53
2023/10/04 03:10:00;;;;;;;;;;;;;;;17.14;46.20;101510.47;4959696;29;1121;-53
2023/10/04 03:12:26;;;;;;;;;;;;;;;17.32;46.74;101512.84;4959854;29;1073;-56
2023/10/04 03:14:52;;;;;;;;;;;;;;;16.94;46.62;101514.66;4947123;29;1112;-57
2023/10/04 03:17:19;;;;;;;;;;;;;;;16.84;45.64;101503.53;4958371;29;1232;-55
2023/10/04 03:19:47;;;;;;;;;;;;;;;17.60;46.25;101513.66;4958218;29;1053;-55
2023/10/04 03:22:18;;;;;;;;;;;;;;;17.06;46.57;101509.84;4949995;29;1915;-56
2023/10/04 03:24:45;;;;;;;;;;;;;;;17.78;46.46;101516.00;4968428;28;1233;-56
2023/10/04 03:27:12;;;;;;;;;;;;;;;17.43;47.05;101517.34;4949755;29;886;-55
2023/10/04 03:29:39;;;;;;;;;;;;;;;17.12;46.15;101516.22;4958743;29;1387;-55
2023/10/04 03:32:05;;;;;;;;;;;;;;;16.96;45.63;101507.00;4954226;29;1735;-59
2023/10/04 03:34:33;;;;;;;;;;;;;;;16.87;44.83;101514.00;4949096;29;1212;-58
2023/10/04 03:37:22;;;;;;;;;;;;;;;16.75;44.65;101519.66;4957717;29;1199;-57
2023/10/04 03:39:47;;;;;;;;;;;;;;;17.48;46.19;101516.56;4951920;28;1509;-59
2023/10/04 03:42:13;;;;;;;;;;;;;;;16.90;46.63;101516.25;4942679;29;1961;-59
2023/10/04 03:44:38;;;;;;;;;;;;;;;16.91;45.42;101520.66;4952220;29;1046;-56
2023/10/04 03:47:04;;;;;;;;;;;;;;;16.75;45.48;101525.94;4957944;29;1132;-54
2023/10/04 03:49:30;;;;;;;;;;;;;;;17.51;46.35;101517.97;4973973;28;1100;-56
2023/10/04 03:51:56;;;;;;;;;;;;;;;16.98;46.65;101524.03;4955745;29;1061;-55
2023/10/04 03:54:21;;;;;;;;;;;;;;;17.89;46.45;101516.06;4956677;29;2161;-54
2023/10/04 03:56:47;;;;;;;;;;;;;;;17.43;47.00;101513.75;4955909;29;1268;-55
2023/10/04 03:59:13;;;;;;;;;;;;;;;17.12;46.47;101518.97;4958661;29;1010;-57
2023/10/04 04:01:38;;;;;;;;;;;;;;;17.00;45.64;101516.38;4949134;29;1910;-56
2023/10/04 04:04:04;;;;;;;;;;;;;;;16.89;45.16;101520.94;4949746;29;876;-56
2023/10/04 04:06:30;;;;;;;;;;;;;;;17.89;46.46;101522.41;4957150;29;1285;-57
2023/10/04 04:08:58;;;;;;;;;;;;;;;17.20;46.86;101518.50;4957073;29;1221;-57
2023/10/04 04:11:23;;;;;;;;;;;;;;;17.00;45.93;101519.13;4957046;29;1040;-51
2023/10/04 04:13:49;;;;;;;;;;;;;;;17.65;46.66;101524.69;4956567;29;1567;-58
2023/10/04 04:16:17;;;;;;;;;;;;;;;17.17;46.76;101527.28;4956721;29;1097;-57
2023/10/04 04:18:44;;;;;;;;;;;;;;;17.16;46.38;101519.28;4941901;29;1592;-60
2023/10/04 04:21:10;;;;;;;;;;;;;;;17.48;47.09;101521.25;4951718;29;1989;-55
2023/10/04 04:23:36;;;;;;;;;;;;;;;16.97;46.80;101511.41;4948784;29;1432;-57
2023/10/04 04:26:05;;;;;;;;;;;;;;;16.94;45.77;101511.91;4969433;28;1270;-57
2023/10/04 04:28:34;;;;;;;;;;;;;;;17.36;46.21;101516.75;4942370;29;1591;-57
2023/10/04 04:31:00;;;;;;;;;;;;;;;17.40;46.76;101512.38;4951804;29;1307;-58
2023/10/04 04:33:29;;;;;;;;;;;;;;;16.99;46.77;101519.41;4956269;29;1609;-55
2023/10/04 04:36:04;;;;;;;;;;;;;;;16.88;45.55;101518.41;4954960;29;1147;-55
2023/10/04 04:38:37;;;;;;;;;;;;;;;18.06;44.32;101522.28;4941884;29;1351;-55
2023/10/04 04:41:06;;;;;;;;;;;;;;;17.62;45.38;101527.97;4953915;29;1951;-55
2023/10/04 04:45:59;;;;;;;;;;;;;;;17.20;46.75;101531.44;4956369;29;1129;-58
2023/10/04 04:48:35;;;;;;;;;;;;;;;17.12;47.28;101535.47;4956873;29;1223;-55
2023/10/04 04:51:08;;;;;;;;;;;;;;;16.97;47.49;101527.91;4952432;28;1160;-56
2023/10/04 04:53:34;;;;;;;;;;;;;;;16.85;48.20;101540.91;4954733;29;1159;-55
2023/10/04 04:56:03;;;;;;;;;;;;;;;16.71;48.58;101545.97;4948975;29;1165;-58
2023/10/04 04:58:31;;;;;;;;;;;;;;;16.66;48.54;101549.47;4951208;29;1357;-54
2023/10/04 05:01:00;;;;;;;;;;;;;;;16.60;49.09;101545.81;4956036;29;1919;-57
2023/10/04 05:03:27;;;;;;;;;;;;;;;16.50;49.28;101544.88;4950903;29;1157;-53
2023/10/04 05:05:55;;;;;;;;;;;;;;;16.46;49.50;101551.94;4940835;29;1908;-54
2023/10/04 05:08:20;;;;;;;;;;;;;;;17.00;48.46;101549.34;4941605;29;1522;-55
2023/10/04 05:10:49;;;;;;;;;;;;;;;17.40;47.58;101541.78;4952313;29;2369;-55
2023/10/04 05:13:14;;;;;;;;;;;;;;;16.92;48.70;101549.81;4957631;29;1076;-56
2023/10/04 05:15:43;;;;;;;;;;;;;;;16.75;49.17;101550.66;4945258;29;868;-55
2023/10/04 05:18:15;;;;;;;;;;;;;;;16.60;49.40;101551.31;4952711;29;1023;-56
2023/10/04 05:20:41;;;;;;;;;;;;;;;17.45;47.96;101550.91;4946754;29;974;-57
2023/10/04 05:23:09;;;;;;;;;;;;;;;17.21;48.16;101544.09;4944207;29;1910;-55
2023/10/04 05:25:34;;;;;;;;;;;;;;;16.86;49.15;101559.06;4955088;29;1084;-56
2023/10/04 05:28:03;;;;;;;;;;;;;;;16.72;49.50;101553.13;4944229;29;1165;-54
2023/10/04 05:30:29;;;;;;;;;;;;;;;16.56;50.28;101543.84;4947590;29;1108;-56
2023/10/04 05:32:55;;;;;;;;;;;;;;;17.75;47.42;101552.28;4941850;29;1120;-56
2023/10/04 05:35:21;;;;;;;;;;;;;;;17.09;49.05;101545.03;4955450;29;1037;-55
2023/10/04 05:37:47;;;;;;;;;;;;;;;16.77;49.86;101554.00;4943366;29;1133;-56
2023/10/04 05:40:34;;;;;;;;;;;;;;;16.68;49.91;101561.03;4951859;29;2348;-55
2023/10/04 05:42:59;;;;;;;;;;;;;;;17.55;48.38;101557.59;4944154;29;2007;-56
2023/10/04 05:45:25;;;;;;;;;;;;;;;17.30;48.81;101552.69;4955845;29;1133;-57
2023/10/04 05:47:50;;;;;;;;;;;;;;;16.96;49.36;101564.69;4950153;29;1047;-56
2023/10/04 05:50:21;;;;;;;;;;;;;;;16.75;50.17;101563.59;4951316;29;1018;-55
2023/10/04 05:52:49;;;;;;;;;;;;;;;16.70;50.36;101561.59;4954213;29;880;-55
2023/10/04 05:55:16;;;;;;;;;;;;;;;16.57;50.44;101561.97;4955344;29;1216;-56
2023/10/04 05:57:48;;;;;;;;;;;;;;;16.47;50.73;101561.84;4954333;28;1286;-55
2023/10/04 06:03:06;;;;;;;;;;;;;;;17.30;48.83;101553.50;4956737;29;1999;-54
2023/10/04 06:05:34;;;;;;;;;;;;;;;16.88;49.92;101565.09;4959157;29;1137;-53
2023/10/04 06:08:02;;;;;;;;;;;;;;;16.71;50.26;101563.25;4959297;29;1038;-54
2023/10/04 06:10:27;;;;;;;;;;;;;;;17.72;48.21;101572.03;4952922;29;2041;-54
2023/10/04 06:12:53;;;;;;;;;;;;;;;17.15;49.54;101578.09;4959606;29;1181;-52
2023/10/04 06:15:19;;;;;;;;;;;;;;;16.91;49.94;101578.34;4945210;28;1184;-57
2023/10/04 06:17:45;;;;;;;;;;;;;;;16.76;50.62;101571.56;4953871;28;1135;-54
2023/10/04 06:23:10;;;;;;;;;;;;;;;17.22;49.28;101570.47;4932145;28;1973;-57
2023/10/04 06:25:39;;;;;;;;;;;;;;;16.92;50.33;101571.78;4960149;29;1045;-55
2023/10/04 06:28:05;;;;;;;;;;;;;;;16.82;50.35;101577.13;4957686;29;1144;-53
2023/10/04 06:30:31;;;;;;;;;;;;;;;16.68;50.63;101569.25;4959513;29;1076;-51
2023/10/04 06:32:57;;;;;;;;;;;;;;;17.72;48.50;101572.03;4955988;28;1224;-56
2023/10/04 06:35:23;;;;;;;;;;;;;;;17.33;49.20;101563.16;4952469;28;1311;-53
2023/10/04 06:37:50;;;;;;;;;;;;;;;17.02;50.05;101573.81;4952564;28;1117;-53
2023/10/04 06:40:15;;;;;;;;;;;;;;;16.87;50.34;101566.19;4949127;28;1852;-54
2023/10/04 06:42:44;;;;;;;;;;;;;;;16.78;50.49;101568.56;4951340;29;1909;-51
2023/10/04 06:45:12;;;;;;;;;;;;;;;16.62;51.01;101564.81;4957074;29;1161;-55
2023/10/04 06:47:38;;;;;;;;;;;;;;;16.60;51.00;101561.47;4957609;29;1042;-54
2023/10/04 06:50:05;;;;;;;;;;;;;;;17.77;48.18;101563.84;4959151;29;1108;-51
2023/10/04 06:52:31;;;;;;;;;;;;;;;17.15;49.62;101567.91;4952402;29;799;-54
2023/10/04 06:54:57;;;;;;;;;;;;;;;16.89;50.30;101564.88;4959376;29;1236;-51
2023/10/04 06:57:22;;;;;;;;;;;;;;;16.72;50.88;101572.34;4959036;29;998;-53
2023/10/04 06:59:48;;;;;;;;;;;;;;;16.67;50.69;101567.59;4946802;29;1093;-51
2023/10/04 07:02:13;;;;;;;;;;;;;;;17.29;49.65;101562.84;4959158;28;1931;-52
2023/10/04 07:04:39;;;;;;;;;;;;;;;17.58;48.75;101557.06;4957067;28;1143;-51
2023/10/04 07:07:04;;;;;;;;;;;;;;;17.08;49.65;101568.13;4959028;28;1248;-55
2023/10/04 07:09:30;;;;;;;;;;;;;;;16.83;50.53;101562.28;4957195;29;2404;-58
2023/10/04 07:11:55;;;;;;;;;;;;;;;16.77;50.56;101562.25;4955979;28;1030;-60
2023/10/04 07:14:21;;;;;;;;;;;;;;;17.29;49.72;101562.84;4946317;28;1212;-60
2023/10/04 07:16:47;;;;;;;;;;;;;;;17.55;48.91;101560.34;4942279;29;895;-60
2023/10/04 07:19:14;;;;;;;;;;;;;;;17.09;49.79;101561.53;4956600;29;1246;-60
2023/10/04 07:21:39;;;;;;;;;;;;;;;16.87;50.57;101550.56;4953566;28;1968;-60
2023/10/04 07:24:06;;;;;;;;;;;;;;;16.76;50.51;101566.06;4938467;29;1017;-60
2023/10/04 07:26:35;;;;;;;;;;;;;;;16.70;50.74;101560.75;4947710;28;1086;-58
2023/10/04 07:29:01;;;;;;;;;;;;;;;17.44;49.40;101554.75;4952009;29;970;-62
2023/10/04 07:31:27;;;;;;;;;;;;;;;17.43;49.09;101552.25;4957246;29;1140;-63
2023/10/04 07:33:52;;;;;;;;;;;;;;;17.06;49.96;101547.50;4952290;29;1117;-58
2023/10/04 07:36:19;;;;;;;;;;;;;;;16.80;50.85;101549.06;4958675;28;1097;-61
2023/10/04 07:38:45;;;;;;;;;;;;;;;16.77;50.62;101545.78;4958689;29;1107;-59
2023/10/04 07:41:11;;;;;;;;;;;;;;;16.67;51.08;101539.31;4956917;29;2543;-61
2023/10/04 07:43:37;;;;;;;;;;;;;;;17.20;49.98;101534.16;4957592;28;1472;-60
2023/10/04 07:46:03;;;;;;;;;;;;;;;17.41;49.23;101533.28;4955965;29;1425;-60
2023/10/04 07:48:29;;;;;;;;;;;;;;;17.03;50.44;101523.28;4939692;29;1057;-59
2023/10/04 07:50:55;;;;;;;;;;;;;;;16.87;50.88;101534.06;4953463;29;1045;-55
2023/10/04 07:53:21;;;;;;;;;;;;;;;16.77;50.90;101528.44;4947756;29;958;-56
2023/10/04 07:55:49;;;;;;;;;;;;;;;16.64;51.35;101529.66;4942352;29;1221;-56
2023/10/04 07:58:15;;;;;;;;;;;;;;;16.68;51.41;101536.31;4955031;28;1358;-57
2023/10/04 08:00:41;;;;;;;;;;;;;;;17.80;48.58;101529.47;4951849;29;1437;-58
2023/10/04 08:03:07;;;;;;;;;;;;;;;17.14;50.12;101521.44;4937792;29;1922;-56
2023/10/04 08:05:33;;;;;;;;;;;;;;;17.00;50.58;101526.53;4954714;29;1022;-56
2023/10/04 08:08:00;;;;;;;;;;;;;;;16.83;51.15;101526.59;4958104;29;1218;-56
2023/10/04 08:10:27;;;;;;;;;;;;;;;16.68;51.58;101525.31;4951991;28;1866;-56
2023/10/04 08:12:59;;;;;;;;;;;;;;;16.64;51.46;101529.66;4958210;28;1306;-56
2023/10/04 08:15:28;;;;;;;;;;;;;;;17.82;48.90;101527.28;4957376;29;1032;-56
2023/10/04 08:17:58;;;;;;;;;;;;;;;17.27;49.95;101521.88;4956074;29;1139;-56
2023/10/04 08:20:24;;;;;;;;;;;;;;;16.97;50.70;101522.41;4951384;29;1033;-57
2023/10/04 08:22:49;;;;;;;;;;;;;;;16.83;51.19;101519.19;4951283;29;1975;-56
2023/10/04 08:25:23;;;;;;;;;;;;;;;16.75;51.45;101531.44;4949242;29;1030;-53
2023/10/04 08:27:48;;;;;;;;;;;;;;;16.70;51.49;101522.31;4957403;29;1056;-50
2023/10/04 08:30:14;;;;;;;;;;;;;;;16.67;51.33;101522.84;4955792;29;1085;-56
2023/10/04 08:32:41;;;;;;;;;;;;;;;17.77;49.17;101521.75;4956277;28;1148;-55
2023/10/04 08:35:24;;;;;;;;;;;;;;;17.24;50.03;101513.34;4947919;29;1005;-56
2023/10/04 08:37:53;;;;;;;;;;;;;;;16.92;50.85;101514.91;4955973;29;1078;-57
2023/10/04 08:40:19;;;;;;;;;;;;;;;16.84;51.09;101509.03;4954472;28;2372;-54
2023/10/04 08:42:45;;;;;;;;;;;;;;;16.79;51.05;101506.22;4951304;29;1934;-52
2023/10/04 08:45:11;;;;;;;;;;;;;;;16.68;51.39;101511.59;4956469;29;993;-55
2023/10/04 08:47:38;;;;;;;;;;;;;;;16.60;51.62;101507.38;4955215;29;1084;-55
2023/10/04 08:50:04;;;;;;;;;;;;;;;16.58;51.63;101516.97;4936381;29;1014;-55
2023/10/04 08:52:35;;;;;;;;;;;;;;;17.55;49.70;101506.16;4946582;29;1098;-58
2023/10/04 08:55:06;;;;;;;;;;;;;;;17.29;49.86;101502.34;4950112;28;1183;-55
2023/10/04 08:57:35;;;;;;;;;;;;;;;16.98;50.64;101499.31;4952826;28;1010;-57
2023/10/04 09:00:02;;;;;;;;;;;;;;;16.85;50.97;101502.44;4947364;29;1118;-56
2023/10/04 09:02:28;;;;;;;;;;;;;;;16.74;51.42;101504.25;4952662;29;1910;-60
2023/10/04 09:04:54;;;;;;;;;;;;;;;16.67;51.58;101495.38;4955454;29;1061;-56
2023/10/04 09:07:19;;;;;;;;;;;;;;;16.69;51.59;101505.03;4956842;29;1072;-57
2023/10/04 09:09:45;;;;;;;;;;;;;;;17.64;49.00;101501.00;4946494;28;2494;-56
2023/10/04 09:12:11;;;;;;;;;;;;;;;17.09;50.54;101501.06;4956533;29;1073;-58
2023/10/04 09:14:37;;;;;;;;;;;;;;;16.92;50.96;101492.13;4957345;29;1097;-55
2023/10/04 09:17:04;;;;;;;;;;;;;;;16.81;51.16;101491.13;4947564;28;1164;-56
2023/10/04 09:19:30;;;;;;;;;;;;;;;16.68;51.38;101492.38;4956907;29;1009;-56
2023/10/04 09:21:56;;;;;;;;;;;;;;;16.71;51.38;101486.34;4952865;28;1911;-54
2023/10/04 09:24:21;;;;;;;;;;;;;;;17.88;48.60;101486.88;4945834;29;1093;-55
2023/10/04 09:26:53;;;;;;;;;;;;;;;17.22;50.05;101488.00;4943923;29;1125;-56
2023/10/04 09:29:35;;;;;;;;;;;;;;;17.00;50.69;101493.56;4952842;29;1183;-56
2023/10/04 09:32:01;;;;;;;;;;;;;;;16.80;51.21;101494.16;4957233;29;1149;-55
2023/10/04 09:34:28;;;;;;;;;;;;;;;16.76;51.16;101493.84;4955679;29;1187;-51
2023/10/04 09:36:53;;;;;;;;;;;;;;;16.74;51.32;101487.75;4957443;28;1093;-55
2023/10/04 09:39:27;;;;;;;;;;;;;;;17.35;50.14;101495.00;4953088;29;2434;-54
2023/10/04 09:41:54;;;;;;;;;;;;;;;17.39;49.85;101490.63;4955187;29;1910;-56
2023/10/04 09:44:23;;;;;;;;;;;;;;;17.05;51.06;101483.44;4959922;28;1073;-56
2023/10/04 09:46:54;;;;;;;;;;;;;;;16.87;51.54;101484.63;4952656;28;1172;-56
2023/10/04 09:49:28;;;;;;;;;;;;;;;16.78;51.70;101480.66;4960579;28;1104;-56
2023/10/04 09:51:53;;;;;;;;;;;;;;;16.74;51.67;101490.50;4958731;28;1322;-56
2023/10/04 09:54:20;;;;;;;;;;;;;;;16.85;51.63;101480.47;4957853;28;1081;-56
2023/10/04 09:56:51;;;;;;;;;;;;;;;17.75;49.34;101480.78;4958797;28;1268;-55
2023/10/04 09:59:19;;;;;;;;;;;;;;;17.14;50.93;101474.72;4950831;29;998;-56
2023/10/04 10:01:54;;;;;;;;;;;;;;;16.91;51.54;101482.22;4952998;29;1989;-54
2023/10/04 10:04:29;;;;;;;;;;;;;;;16.86;51.66;101476.66;4947508;29;1147;-52
2023/10/04 10:07:10;;;;;;;;;;;;;;;16.76;52.06;101478.19;4957344;28;1334;-54
2023/10/04 10:09:36;;;;;;;;;;;;;;;16.69;52.16;101472.06;4954054;28;1175;-58
2023/10/04 10:12:02;;;;;;;;;;;;;;;17.56;50.40;101474.84;4956204;29;1278;-58
2023/10/04 10:14:28;;;;;;;;;;;;;;;17.37;50.88;101463.41;4948539;29;1131;-58
2023/10/04 10:16:54;;;;;;;;;;;;;;;17.08;51.58;101471.97;4947197;29;1105;-54
2023/10/04 10:19:21;;;;;;;;;;;;;;;16.91;51.96;101461.09;4959136;29;1188;-54
2023/10/04 10:22:08;;;;;;;;;;;;;;;16.83;52.15;101460.66;4947003;29;1909;-57
2023/10/04 10:24:33;;;;;;;;;;;;;;;16.74;52.19;101463.88;4951821;29;1063;-57
2023/10/04 10:27:03;;;;;;;;;;;;;;;16.67;52.34;101463.25;4956195;28;1207;-57
2023/10/04 10:29:31;;;;;;;;;;;;;;;16.84;52.36;101460.41;4956796;28;1170;-57
2023/10/04 10:31:56;;;;;;;;;;;;;;;17.71;50.27;101454.03;4943786;29;1137;-55
2023/10/04 10:34:22;;;;;;;;;;;;;;;17.13;51.64;101454.69;4953839;29;1066;-54
2023/10/04 10:37:23;;;;;;;;;;;;;;;17.00;52.10;101460.59;4952457;29;1205;-53
2023/10/04 10:39:50;;;;;;;;;;;;;;;16.83;52.32;101449.66;4913809;29;1957;-55
2023/10/04 10:42:15;;;;;;;;;;;;;;;16.81;52.54;101440.88;4947596;29;1914;-59
2023/10/04 10:44:41;;;;;;;;;;;;;;;16.71;52.61;101442.41;4955221;28;1106;-58
2023/10/04 10:47:16;;;;;;;;;;;;;;;17.30;51.62;101432.56;4963241;28;1389;-56
2023/10/04 10:49:44;;;;;;;;;;;;;;;17.42;51.19;101435.97;4958520;29;1077;-53
2023/10/04 10:52:10;;;;;;;;;;;;;;;17.06;52.13;101438.41;4959327;29;1086;-54
2023/10/04 10:54:36;;;;;;;;;;;;;;;16.92;52.29;101431.69;4946337;28;1065;-57
2023/10/04 10:57:05;;;;;;;;;;;;;;;16.86;52.37;101435.44;4958338;29;1070;-59
2023/10/04 10:59:32;;;;;;;;;;;;;;;16.76;52.51;101433.44;4954471;28;1084;-55
2023/10/04 11:01:58;;;;;;;;;;;;;;;17.83;50.62;101440.09;4958193;28;1918;-56
2023/10/04 11:04:24;;;;;;;;;;;;;;;17.34;51.67;101435.63;4959415;28;1303;-56
2023/10/04 11:06:51;;;;;;;;;;;;;;;17.08;52.26;101438.97;4953310;28;1437;-53
2023/10/04 11:09:17;;;;;;;;;;;;;;;16.97;52.35;101437.22;4958189;28;2543;-52
2023/10/04 11:11:42;;;;;;;;;;;;;;;16.86;52.84;101440.94;4958806;28;1392;-50
2023/10/04 11:14:09;;;;;;;;;;;;;;;16.82;52.85;101440.63;4958485;29;1098;-50
2023/10/04 11:16:34;;;;;;;;;;;;;;;16.71;52.71;101436.94;4958939;28;1412;-59
2023/10/04 11:19:03;;;;;;;;;;;;;;;17.38;51.74;101423.00;4955717;28;1009;-55
2023/10/04 11:21:29;;;;;;;;;;;;;;;17.59;51.38;101424.00;4951083;28;1992;-55
2023/10/04 11:23:55;;;;;;;;;;;;;;;17.21;52.18;101434.16;4957218;28;1139;-55
2023/10/04 11:26:21;;;;;;;;;;;;;;;17.01;52.51;101432.88;4958535;29;1045;-56
2023/10/04 11:28:47;;;;;;;;;;;;;;;16.89;52.62;101432.22;4958340;28;1334;-55
2023/10/04 11:31:13;;;;;;;;;;;;;;;16.85;52.93;101420.03;4954497;28;1315;-58
2023/10/04 11:33:51;;;;;;;;;;;;;;;16.80;52.80;101420.81;4953001;28;1312;-55
2023/10/04 11:36:23;;;;;;;;;;;;;;;17.69;51.17;101428.72;4957831;28;1366;-56
2023/10/04 11:38:52;;;;;;;;;;;;;;;17.18;52.42;101419.00;4955979;29;1015;-56
2023/10/04 11:41:21;;;;;;;;;;;;;;;17.03;52.78;101427.94;4957861;29;1969;-56
2023/10/04 11:43:47;;;;;;;;;;;;;;;16.94;52.85;101432.25;4957029;29;1284;-56
2023/10/04 11:46:12;;;;;;;;;;;;;;;16.89;52.84;101423.97;4957107;28;1113;-56
2023/10/04 11:48:38;;;;;;;;;;;;;;;16.73;53.15;101429.28;4957892;29;1228;-56
2023/10/04 11:51:06;;;;;;;;;;;;;;;16.73;52.93;101432.03;4957668;29;1143;-56
2023/10/04 11:53:35;;;;;;;;;;;;;;;16.67;52.96;101430.28;4957772;28;1218;-55
2023/10/04 11:56:01;;;;;;;;;;;;;;;17.22;52.70;101419.28;4945849;29;1130;-52
2023/10/04 11:58:30;;;;;;;;;;;;;;;17.49;51.76;101424.75;4957405;29;1267;-53
2023/10/04 12:01:04;;;;;;;;;;;;;;;17.13;52.65;101420.88;4956399;28;1247;-54
2023/10/04 12:03:30;;;;;;;;;;;;;;;16.90;53.28;101423.69;4958221;29;1925;-55
2023/10/04 12:05:56;;;;;;;;;;;;;;;16.89;52.97;101422.03;4948523;29;1217;-55
2023/10/04 12:08:22;;;;;;;;;;;;;;;16.79;53.44;101415.56;4943482;28;1175;-54
2023/10/04 12:10:47;;;;;;;;;;;;;;;16.74;53.15;101424.59;4950034;29;2371;-57
2023/10/04 12:13:13;;;;;;;;;;;;;;;16.68;53.10;101410.00;4948277;29;1033;-57
2023/10/04 12:15:39;;;;;;;;;;;;;;;16.63;53.44;101407.19;4955561;29;1098;-56
2023/10/04 12:18:06;;;;;;;;;;;;;;;17.60;51.81;101415.47;4952698;29;1099;-53
2023/10/04 12:20:36;;;;;;;;;;;;;;;17.23;52.76;101413.53;4953723;29;1180;-53
2023/10/04 12:23:01;;;;;;;;;;;;;;;16.92;53.34;101410.53;4957785;28;1915;-57
2023/10/04 12:25:28;;;;;;;;;;;;;;;16.85;53.43;101414.56;4956487;29;1054;-56
2023/10/04 12:27:53;;;;;;;;;;;;;;;16.77;53.23;101413.94;4954666;28;1125;-57
2023/10/04 12:30:20;;;;;;;;;;;;;;;16.72;53.33;101408.38;4946690;29;1118;-55
2023/10/04 12:32:46;;;;;;;;;;;;;;;17.58;52.10;101412.13;4957139;28;1303;-53
2023/10/04 12:35:13;;;;;;;;;;;;;;;17.42;52.35;101411.22;4957972;28;1216;-54
2023/10/04 12:37:39;;;;;;;;;;;;;;;17.09;53.33;101402.16;4957285;29;1129;-52
2023/10/04 12:40:16;;;;;;;;;;;;;;;16.96;53.13;101402.59;4955405;28;2473;-51
2023/10/04 12:42:42;;;;;;;;;;;;;;;16.86;53.28;101399.75;4964595;28;1914;-56
2023/10/04 12:45:10;;;;;;;;;;;;;;;16.76;53.62;101401.28;4950104;28;1256;-55
2023/10/04 12:47:35;;;;;;;;;;;;;;;17.04;52.49;101393.88;4954561;29;1261;-55
2023/10/04 12:50:02;;;;;;;;;;;;;;;16.88;52.90;101400.28;4950673;29;1337;-52
2023/10/04 12:52:30;;;;;;;;;;;;;;;17.56;52.39;101397.03;4955093;29;1181;-52
2023/10/04 12:54:57;;;;;;;;;;;;;;;17.43;52.54;101393.63;4944997;29;851;-53
2023/10/04 12:57:22;;;;;;;;;;;;;;;17.08;53.08;101399.66;4956934;28;1267;-53